• Join FlightAware (Why Join?)
  • Login
  • US Flag 
Gobble Gobble! 
08:18AM EST


 

Airport Tracker/Info


-or-


 

Live Flight TrackerFlight Track Log ✈ LYM1725 ✈ 30-Apr-2013 ✈ KDEN - KRIW

Flight Track Log - Related Links

Times and Time Zones

All times are in EDT time to prevent confusion due to time zone crossing. See the LYM1725 flight status page for this flight to view local times or setup timezone preferences in your user account.

Time Position Orientation Groundspeed Altitude Reporting Facility
EDT Latitude Longitude Course Direction KTS MPH feet Rate Location/Type
08:27AM 39.9167 -104.7000 349° North 153 176 7,300  Level Denver TRACON
08:28AM 39.9667 -104.7167 346° North 184 212 8,700 1,440 Climbing Denver TRACON
08:29AM 40.0167 -104.7500 333° Northwest 192 221 10,200 1,500 Climbing Denver TRACON
08:30AM 40.0667 -104.7667 346° North 188 216 11,700 1,380 Climbing Denver TRACON
08:31AM 40.1167 -104.7797 349° North 194 223 13,100 1,320 Climbing Denver Center
08:32AM 40.1475 -104.8035 349° North  Level FlightAware Approximate
08:32AM 40.1722 -104.7922 350° North 201 231 14,500  Level Denver Center
08:33AM 40.2272 -104.8019 352° North 199 229 15,800 1,320 Climbing Denver Center
08:34AM 40.2817 -104.8097 354° North 195 224 17,300 1,440 Climbing Denver Center
08:35AM 40.3375 -104.8164 355° North 185 213 18,800 1,260 Climbing Denver Center
08:36AM 40.3900 -104.8219 355° North 189 217 19,900 600 Climbing Denver Center
08:37AM 40.4478 -104.8308 353° North 215 247 20,100 60 Climbing Denver Center
08:38AM 40.4986 -104.8736 327° Northwest 217 250 20,100 -60 Level Denver Center
08:39AM 40.5472 -104.9214 323° Northwest 217 250 20,000 -60 Descending Denver Center
08:40AM 40.5967 -104.9717 322° Northwest 224 258 20,000  Level Denver Center
08:41AM 40.6547 -105.0281 324° Northwest 240 276 20,100  Climbing Denver Center
08:42AM 40.7100 -105.0842 322° Northwest 252 290 20,000 -60 Descending Denver Center
08:43AM 40.7619 -105.1283 327° Northwest 241 277 20,000  Level Denver Center
08:44AM 40.8194 -105.1817 325° Northwest 248 285 20,000  Level Denver Center
08:45AM 40.8767 -105.2333 326° Northwest 246 283 20,000  Level Denver Center
08:46AM 40.9314 -105.2872 323° Northwest 244 281 20,000  Level Denver Center
08:47AM 40.9867 -105.3406 324° Northwest 243 280 20,000  Level Denver Center
08:48AM 41.0483 -105.4022 323° Northwest 245 282 20,100  Climbing Denver Center
08:49AM 41.0967 -105.4519 322° Northwest 234 269 20,100 -60 Level Denver Center
08:50AM 41.1436 -105.5072 318° Northwest 235 270 20,000 -60 Descending Denver Center
08:51AM 41.1978 -105.5731 318° Northwest 236 272 20,000  Level Denver Center
08:52AM 41.2447 -105.6222 322° Northwest 227 261 20,000  Level Denver Center
08:53AM 41.3069 -105.6903 321° Northwest 226 260 20,000  Level Denver Center
08:54AM 41.3447 -105.7519 309° West 225 259 20,000  Level Denver Center
08:55AM 41.3803 -105.8156 307° West 224 258 20,000 -60 Level Denver Center
08:56AM 41.4208 -105.8919 305° West 227 261 19,900  Descending Denver Center
08:57AM 41.4586 -105.9558 308° West 229 264 20,000 60 Climbing Denver Center
08:58AM 41.4975 -106.0183 310° West 228 262 20,100  Climbing Denver Center
08:59AM 41.5419 -106.0972 307° West 235 270 20,000 -60 Descending Denver Center
09:00AM 41.5806 -106.1639 308° West 236 272 20,000  Level Denver Center
09:01AM 41.6208 -106.2422 305° West 229 264 20,100  Climbing Denver Center
09:02AM 41.6603 -106.3039 311° West 229 264 20,000  Descending Denver Center
09:03AM 41.6986 -106.3683 309° West 230 265 20,100  Climbing Denver Center
09:04AM 41.7458 -106.4436 310° West 234 269 20,000 -60 Descending Denver Center
09:05AM 41.7886 -106.5014 315° West 231 266 20,000  Level Denver Center
09:06AM 41.8369 -106.5608 318° Northwest 231 266 20,000  Level Denver Center
09:07AM 41.8825 -106.6161 318° Northwest 230 265 20,000  Level Denver Center
09:08AM 41.9356 -106.6822 317° Northwest 234 269 20,100  Climbing Denver Center
09:09AM 41.9817 -106.7394 317° Northwest 236 272 20,000 -60 Descending Denver Center
09:11AM 42.0256 -106.7975 316° Northwest 232 267 20,000  Level Denver Center
09:12AM 42.0806 -106.8647 318° Northwest 237 273 20,000  Level Denver Center
09:13AM 42.1372 -106.9333 318° Northwest 245 282 20,000  Level Denver Center
09:14AM 42.1861 -106.9997 315° West 237 273 20,000  Level Denver Center
09:15AM 42.2303 -107.0683 311° West 240 276 20,000 -60 Level Denver Center
09:16AM 42.2722 -107.1317 312° West 238 274 19,900 -60 Descending Denver Center
09:17AM 42.3206 -107.2061 311° West 235 270 19,900 -180 Level Denver Center
09:18AM 42.3567 -107.2736 306° West 233 268 19,600 -540 Descending Denver Center
09:19AM 42.3992 -107.3400 311° West 242 278 18,900 -720 Descending Denver Center
09:20AM 42.4531 -107.4181 313° West 254 292 18,200 -720 Descending Denver Center
09:20AM 42.4678 -107.4414 311° West 256 295 17,900 -840 Descending Salt Lake Center
09:21AM 42.5231 -107.5208 313° West 259 298 17,000 -840 Descending Salt Lake Center
09:22AM 42.5725 -107.5908 314° West 265 305 16,300 -600 Descending Salt Lake Center
09:23AM 42.6222 -107.6594 315° West 267 307 15,800 -720 Descending Salt Lake Center
09:24AM 42.6889 -107.7297 322° Northwest 272 313 14,900 -960 Descending Salt Lake Center
09:25AM 42.7564 -107.7728 335° Northwest 280 322 13,900 -900 Descending Salt Lake Center
09:26AM 42.8169 -107.8308 325° Northwest 278 320 13,200 -840 Descending Salt Lake Center
09:27AM 42.8600 -107.9308 300° West 275 316 12,300 -840 Descending Salt Lake Center
09:28AM 42.8961 -108.0269 297° West 277 319 11,500 -780 Descending Salt Lake Center
09:29AM 42.9386 -108.1200 302° West 277 319 10,800 -600 Descending Salt Lake Center
09:30AM 42.9739 -108.2039 300° West 274 315 10,400 -960 Descending Salt Lake Center
09:31AM 43.0031 -108.2769 299° West 246 283 8,900 -900 Descending Salt Lake Center
09:32AM 43.0211 -108.3336 294° West 234 269 8,600 -300 Descending Salt Lake Center